createdAt,value
2023-05-22T00:00:18.175Z,18.10
2023-05-22T00:02:45.255Z,18.10
2023-05-22T00:05:13.671Z,18.00
2023-05-22T00:07:41.895Z,18.00
2023-05-22T00:10:09.321Z,18.00
2023-05-22T00:12:36.193Z,17.90
2023-05-22T00:15:03.986Z,17.80
2023-05-22T00:17:31.062Z,17.80
2023-05-22T00:20:07.114Z,17.80
2023-05-22T00:22:37.600Z,17.70
2023-05-22T00:25:05.484Z,17.70
2023-05-22T00:27:33.143Z,17.70
2023-05-22T00:30:00.038Z,17.60
2023-05-22T00:32:27.427Z,17.60
2023-05-22T00:34:54.348Z,17.60
2023-05-22T00:37:21.182Z,17.50
2023-05-22T00:39:48.754Z,17.50
2023-05-22T00:42:15.781Z,17.50
2023-05-22T00:44:42.714Z,17.50
2023-05-22T00:47:09.704Z,17.50
2023-05-22T00:49:36.621Z,17.50
2023-05-22T00:52:03.875Z,17.50
2023-05-22T00:54:32.492Z,17.40
2023-05-22T00:57:01.428Z,17.40
2023-05-22T00:59:29.088Z,17.30
2023-05-22T01:01:57.157Z,17.20
2023-05-22T01:04:25.356Z,17.20
2023-05-22T01:06:53.682Z,17.20
2023-05-22T01:09:20.677Z,17.20
2023-05-22T01:12:00.493Z,17.10
2023-05-22T01:14:44.792Z,17.10
2023-05-22T01:17:25.957Z,17.00
2023-05-22T01:20:24.391Z,16.90
2023-05-22T01:23:14.108Z,16.80
2023-05-22T01:26:02.857Z,16.80
2023-05-22T01:29:03.924Z,16.70
2023-05-22T01:31:34.355Z,16.60
2023-05-22T01:34:03.355Z,16.60
2023-05-22T01:36:35.333Z,16.60
2023-05-22T01:39:06.173Z,16.50
2023-05-22T01:41:34.130Z,16.40
2023-05-22T01:44:02.093Z,16.40
2023-05-22T01:46:30.278Z,16.30
2023-05-22T01:48:58.224Z,16.30
2023-05-22T01:51:28.164Z,16.20
2023-05-22T01:54:07.624Z,16.30
2023-05-22T01:56:43.949Z,16.20
2023-05-22T01:59:15.694Z,16.30
2023-05-22T02:01:43.603Z,16.30
2023-05-22T02:04:12.137Z,16.20
2023-05-22T02:06:39.616Z,16.30
2023-05-22T02:09:08.619Z,16.30
2023-05-22T02:11:44.809Z,16.30
2023-05-22T02:14:13.437Z,16.20
2023-05-22T02:16:47.589Z,16.10
2023-05-22T02:19:15.435Z,16.10
2023-05-22T02:21:42.770Z,16.10
2023-05-22T02:24:09.799Z,16.00
2023-05-22T02:26:37.784Z,16.00
2023-05-22T02:29:04.854Z,16.00
2023-05-22T02:31:31.926Z,16.00
2023-05-22T02:33:59.143Z,16.00
2023-05-22T02:36:26.412Z,15.90
2023-05-22T02:38:55.614Z,15.90
2023-05-22T02:41:23.309Z,15.90
2023-05-22T02:43:50.540Z,15.80
2023-05-22T02:46:17.628Z,15.80
2023-05-22T02:48:45.510Z,15.70
2023-05-22T02:51:12.799Z,15.60
2023-05-22T02:53:44.115Z,15.60
2023-05-22T02:56:12.300Z,15.50
2023-05-22T02:58:39.803Z,15.50
2023-05-22T03:01:09.017Z,15.40
2023-05-22T03:03:36.933Z,15.40
2023-05-22T03:06:04.282Z,15.40
2023-05-22T03:08:32.927Z,15.40
2023-05-22T03:11:01.737Z,15.40
2023-05-22T03:13:28.580Z,15.40
2023-05-22T03:15:55.597Z,15.40
2023-05-22T03:18:25.941Z,15.40
2023-05-22T03:20:54.388Z,15.40
2023-05-22T03:23:21.286Z,15.50
2023-05-22T03:25:48.455Z,15.50
2023-05-22T03:28:16.056Z,15.50
2023-05-22T03:30:43.483Z,15.60
2023-05-22T03:33:21.454Z,15.60
2023-05-22T03:35:48.898Z,15.70
2023-05-22T03:38:15.901Z,15.70
2023-05-22T03:40:42.833Z,15.80
2023-05-22T03:43:10.714Z,15.80
2023-05-22T03:45:38.767Z,15.80
2023-05-22T03:48:06.117Z,15.80
2023-05-22T03:50:34.768Z,15.80
2023-05-22T03:53:06.036Z,15.80
2023-05-22T03:55:33.075Z,15.80
2023-05-22T03:57:59.856Z,15.80
2023-05-22T04:00:27.177Z,15.80
2023-05-22T04:02:54.801Z,15.90
2023-05-22T04:05:24.692Z,15.90
2023-05-22T04:07:51.692Z,16.00
2023-05-22T04:10:22.461Z,16.00
2023-05-22T04:12:50.850Z,16.10
2023-05-22T04:15:17.882Z,16.10
2023-05-22T04:17:44.965Z,16.20
2023-05-22T04:20:12.288Z,16.20
2023-05-22T04:22:39.498Z,16.20
2023-05-22T04:25:06.696Z,16.30
2023-05-22T04:27:34.228Z,16.30
2023-05-22T04:30:02.923Z,16.40
2023-05-22T04:32:29.979Z,16.50
2023-05-22T04:34:58.393Z,16.50
2023-05-22T04:37:26.502Z,16.60
2023-05-22T04:39:53.724Z,16.60
2023-05-22T04:42:22.491Z,16.70
2023-05-22T04:44:49.351Z,16.70
2023-05-22T04:47:17.761Z,16.80
2023-05-22T04:49:45.708Z,16.80
2023-05-22T04:52:12.763Z,16.80
2023-05-22T04:54:56.121Z,16.90
2023-05-22T04:57:25.530Z,16.90
2023-05-22T04:59:54.461Z,16.90
2023-05-22T05:02:21.570Z,17.00
2023-05-22T05:04:48.931Z,17.00
2023-05-22T05:07:19.480Z,17.10
2023-05-22T05:09:46.809Z,17.20
2023-05-22T05:12:16.872Z,17.30
2023-05-22T05:14:46.424Z,17.40
2023-05-22T05:17:15.899Z,17.60
2023-05-22T05:19:43.322Z,17.80
2023-05-22T05:22:10.461Z,17.90
2023-05-22T05:24:38.223Z,18.10
2023-05-22T05:27:05.979Z,18.30
2023-05-22T05:29:33.093Z,18.50
2023-05-22T05:32:08.133Z,18.60
2023-05-22T05:34:47.695Z,18.80
2023-05-22T05:37:25.097Z,19.00
2023-05-22T05:39:54.753Z,19.10
2023-05-22T05:42:21.626Z,19.30
2023-05-22T05:44:49.426Z,19.40
2023-05-22T05:47:17.794Z,19.50
2023-05-22T05:49:44.837Z,19.60
2023-05-22T05:52:12.446Z,19.60
2023-05-22T05:54:39.484Z,19.80
2023-05-22T05:57:14.688Z,19.80
2023-05-22T05:59:41.618Z,19.90
2023-05-22T06:02:41.870Z,20.00
2023-05-22T06:05:20.082Z,20.10
2023-05-22T06:07:50.083Z,20.30
2023-05-22T06:10:18.617Z,20.50
2023-05-22T06:12:57.942Z,20.70
2023-05-22T06:15:28.890Z,20.90
2023-05-22T06:17:56.323Z,21.00
2023-05-22T06:20:25.094Z,21.10
2023-05-22T06:22:52.114Z,21.20
2023-05-22T06:25:20.223Z,21.10
2023-05-22T06:27:48.474Z,21.30
2023-05-22T06:30:28.205Z,21.50
2023-05-22T06:33:04.656Z,21.60
2023-05-22T06:35:31.752Z,21.60
2023-05-22T06:37:59.008Z,21.70
2023-05-22T06:40:26.508Z,21.70
2023-05-22T06:42:59.297Z,21.90
2023-05-22T06:45:39.085Z,22.10
2023-05-22T06:48:26.268Z,22.20
2023-05-22T06:51:19.666Z,22.40
2023-05-22T06:53:51.432Z,22.60
2023-05-22T06:56:25.172Z,22.70
2023-05-22T06:59:00.275Z,22.90
2023-05-22T07:01:49.908Z,23.00
2023-05-22T07:04:26.131Z,23.30
2023-05-22T07:07:00.694Z,23.40
2023-05-22T07:09:28.590Z,23.40
2023-05-22T07:11:55.582Z,23.60
2023-05-22T07:14:23.068Z,23.70
2023-05-22T07:16:51.188Z,23.60
2023-05-22T07:19:24.812Z,23.80
2023-05-22T07:21:54.168Z,23.90
2023-05-22T07:24:22.152Z,23.80
2023-05-22T07:26:50.083Z,23.90
2023-05-22T07:29:18.244Z,24.10
2023-05-22T07:31:48.540Z,24.30
2023-05-22T07:34:16.622Z,24.50
2023-05-22T07:36:44.797Z,24.90
2023-05-22T07:39:11.691Z,24.80
2023-05-22T07:41:41.030Z,24.90
2023-05-22T07:44:11.124Z,25.00
2023-05-22T07:46:39.023Z,25.20
2023-05-22T07:49:12.028Z,25.10
2023-05-22T07:51:41.651Z,25.00
2023-05-22T07:54:10.171Z,25.10
2023-05-22T07:56:43.390Z,25.30
2023-05-22T07:59:12.088Z,25.60
2023-05-22T08:01:40.209Z,25.90
2023-05-22T08:04:07.637Z,26.10
2023-05-22T08:06:37.740Z,26.40
2023-05-22T08:09:05.072Z,26.60
2023-05-22T08:11:32.682Z,26.80
2023-05-22T08:13:59.533Z,27.10
2023-05-22T08:16:26.429Z,27.70
2023-05-22T08:18:53.390Z,28.30
2023-05-22T08:21:20.328Z,28.80
2023-05-22T08:23:47.189Z,29.50
2023-05-22T08:26:15.183Z,29.90
2023-05-22T08:28:44.236Z,29.70
2023-05-22T08:31:11.949Z,29.70
2023-05-22T08:33:39.834Z,29.80
2023-05-22T08:36:06.832Z,30.00
2023-05-22T08:38:34.107Z,30.30
2023-05-22T08:41:01.138Z,30.70
2023-05-22T08:43:28.684Z,31.30
2023-05-22T08:46:06.190Z,31.20
2023-05-22T08:48:33.584Z,31.30
2023-05-22T08:51:06.001Z,31.70
2023-05-22T08:53:36.938Z,32.10
2023-05-22T08:56:07.023Z,32.70
2023-05-22T08:58:35.952Z,33.30
2023-05-22T09:01:04.875Z,33.80
2023-05-22T09:03:35.191Z,34.40
2023-05-22T09:06:03.280Z,35.00
2023-05-22T09:08:30.130Z,34.90
2023-05-22T09:10:57.108Z,35.20
2023-05-22T09:13:29.274Z,35.20
2023-05-22T09:16:14.909Z,34.90
2023-05-22T09:18:45.328Z,35.00
2023-05-22T09:21:29.717Z,35.70
2023-05-22T09:24:01.472Z,36.00
2023-05-22T09:26:29.563Z,36.20
2023-05-22T09:28:58.919Z,35.70
2023-05-22T09:31:26.150Z,35.60
2023-05-22T09:33:54.976Z,35.80
2023-05-22T09:36:22.154Z,36.30
2023-05-22T09:38:49.177Z,36.40
2023-05-22T09:41:22.514Z,36.50
2023-05-22T09:43:52.526Z,36.40
2023-05-22T09:46:19.566Z,37.00
2023-05-22T09:48:52.442Z,37.60
2023-05-22T09:51:26.623Z,37.90
2023-05-22T09:54:01.456Z,38.20
2023-05-22T09:56:38.592Z,38.90
2023-05-22T09:59:09.618Z,38.60
2023-05-22T10:01:38.665Z,38.00
2023-05-22T10:04:08.829Z,37.60
2023-05-22T10:06:37.783Z,37.10
2023-05-22T10:09:09.778Z,35.10
2023-05-22T10:11:37.964Z,34.90
2023-05-22T10:14:05.568Z,34.70
2023-05-22T10:16:36.394Z,34.20
2023-05-22T10:19:03.611Z,34.70
2023-05-22T10:21:32.034Z,34.90
2023-05-22T10:24:01.799Z,35.50
2023-05-22T10:26:29.188Z,35.20
2023-05-22T10:29:17.987Z,34.80
2023-05-22T10:32:09.404Z,34.70
2023-05-22T10:35:21.241Z,35.10
2023-05-22T10:37:54.879Z,35.20
2023-05-22T10:40:29.207Z,35.50
2023-05-22T10:43:00.890Z,36.30
2023-05-22T10:45:31.981Z,36.10
2023-05-22T10:48:06.653Z,36.10
2023-05-22T10:50:34.613Z,36.50
2023-05-22T10:53:24.664Z,35.80
2023-05-22T10:55:52.219Z,36.00
2023-05-22T10:58:37.348Z,36.40
2023-05-22T11:01:18.297Z,36.40
2023-05-22T11:03:51.060Z,36.60
2023-05-22T11:06:33.420Z,37.10
2023-05-22T11:09:06.993Z,37.40
2023-05-22T11:11:33.986Z,38.10
2023-05-22T11:14:04.448Z,38.60
2023-05-22T11:16:33.542Z,38.60
2023-05-22T11:19:21.861Z,39.00
2023-05-22T11:21:49.982Z,38.90
2023-05-22T11:24:20.624Z,38.20
2023-05-22T11:27:02.457Z,38.30
2023-05-22T11:29:30.684Z,38.30
2023-05-22T11:31:59.329Z,38.70
2023-05-22T11:34:26.858Z,38.60
2023-05-22T11:36:59.793Z,38.90
2023-05-22T11:39:27.336Z,39.40
2023-05-22T11:41:54.649Z,39.70
2023-05-22T11:44:21.764Z,40.10
2023-05-22T11:46:48.838Z,40.00
2023-05-22T11:49:17.287Z,39.90
2023-05-22T11:51:45.290Z,39.80
2023-05-22T11:54:12.266Z,40.10
2023-05-22T11:56:39.221Z,40.40
2023-05-22T11:59:06.123Z,40.40
2023-05-22T12:01:33.327Z,40.80
2023-05-22T12:04:00.309Z,40.60
2023-05-22T12:06:27.508Z,41.00
2023-05-22T12:09:12.093Z,41.10
2023-05-22T12:11:55.761Z,41.60
2023-05-22T12:14:34.151Z,42.20
2023-05-22T12:17:04.465Z,42.10
2023-05-22T12:19:32.764Z,41.70
2023-05-22T12:22:00.435Z,41.70
2023-05-22T12:24:38.483Z,41.50
2023-05-22T12:27:09.719Z,41.60
2023-05-22T12:29:38.436Z,41.60
2023-05-22T12:32:09.172Z,42.20
2023-05-22T12:34:43.078Z,42.70
2023-05-22T12:37:21.158Z,42.30
2023-05-22T12:40:06.126Z,42.40
2023-05-22T12:42:33.078Z,42.70
2023-05-22T12:45:00.673Z,42.50
2023-05-22T12:47:28.150Z,42.60
2023-05-22T12:50:01.367Z,42.00
2023-05-22T12:52:28.409Z,42.20
2023-05-22T12:54:55.558Z,42.50
2023-05-22T12:57:22.513Z,42.10
2023-05-22T12:59:49.515Z,41.90
2023-05-22T13:02:18.610Z,41.40
2023-05-22T13:04:49.721Z,41.40
2023-05-22T13:07:16.716Z,41.40
2023-05-22T13:09:45.173Z,41.10
2023-05-22T13:12:12.284Z,40.80
2023-05-22T13:14:40.543Z,40.50
2023-05-22T13:17:08.223Z,39.70
2023-05-22T13:19:35.309Z,38.50
2023-05-22T13:22:02.280Z,37.50
2023-05-22T13:24:30.426Z,36.90
2023-05-22T13:26:57.393Z,36.50
2023-05-22T13:29:24.741Z,36.60
2023-05-22T13:31:51.736Z,36.50
2023-05-22T13:34:18.752Z,36.60
2023-05-22T13:36:46.644Z,36.70
2023-05-22T13:39:13.567Z,37.20
2023-05-22T13:41:40.748Z,37.40
2023-05-22T13:44:07.889Z,37.50
2023-05-22T13:46:34.991Z,37.30
2023-05-22T13:49:02.111Z,37.50
2023-05-22T13:51:29.262Z,37.90
2023-05-22T13:53:56.136Z,38.20
2023-05-22T13:56:23.765Z,38.40
2023-05-22T13:58:50.790Z,38.50
2023-05-22T14:01:17.758Z,39.20
2023-05-22T14:03:44.736Z,39.00
2023-05-22T14:06:11.702Z,39.10
2023-05-22T14:08:38.896Z,39.70
2023-05-22T14:11:06.075Z,40.30
2023-05-22T14:13:33.120Z,40.80
2023-05-22T14:16:00.198Z,41.20
2023-05-22T14:18:27.167Z,41.70
2023-05-22T14:20:54.235Z,40.50
2023-05-22T14:23:21.303Z,40.50
2023-05-22T14:25:48.308Z,40.20
2023-05-22T14:28:16.013Z,40.30
2023-05-22T14:30:43.022Z,40.50
2023-05-22T14:33:09.940Z,40.70
2023-05-22T14:35:36.850Z,40.90
2023-05-22T14:38:04.007Z,41.40
2023-05-22T14:40:30.978Z,41.90
2023-05-22T14:42:57.947Z,41.70
2023-05-22T14:45:24.936Z,41.70
2023-05-22T14:47:53.816Z,41.20
2023-05-22T14:50:21.125Z,41.00
2023-05-22T14:52:51.634Z,40.80
2023-05-22T14:55:19.380Z,41.10
2023-05-22T14:57:49.158Z,40.70
2023-05-22T15:00:19.431Z,40.80
2023-05-22T15:02:46.727Z,40.90
2023-05-22T15:05:13.982Z,41.20
2023-05-22T15:07:44.407Z,41.20
2023-05-22T15:10:13.493Z,42.20
2023-05-22T15:12:40.764Z,42.60
2023-05-22T15:15:08.290Z,43.00
2023-05-22T15:17:35.632Z,42.80
2023-05-22T15:20:12.992Z,42.20
2023-05-22T15:22:40.575Z,41.20
2023-05-22T15:25:09.677Z,39.60
2023-05-22T15:27:38.541Z,38.50
2023-05-22T15:30:09.541Z,36.90
2023-05-22T15:32:38.055Z,36.50
2023-05-22T15:35:06.875Z,36.00
2023-05-22T15:37:34.178Z,35.30
2023-05-22T15:40:02.395Z,34.30
2023-05-22T15:42:30.547Z,33.40
2023-05-22T15:44:59.555Z,32.70
2023-05-22T15:47:27.297Z,32.20
2023-05-22T15:49:55.404Z,31.80
2023-05-22T15:52:25.403Z,31.60
2023-05-22T15:54:53.971Z,31.20
2023-05-22T15:57:23.255Z,31.00
2023-05-22T15:59:51.164Z,30.80
2023-05-22T16:02:19.009Z,30.70
2023-05-22T16:04:46.139Z,30.50
2023-05-22T16:07:12.973Z,30.20
2023-05-22T16:09:40.486Z,30.10
2023-05-22T16:12:07.909Z,30.10
2023-05-22T16:14:35.110Z,29.90
2023-05-22T16:17:01.940Z,29.80
2023-05-22T16:19:28.845Z,29.60
2023-05-22T16:21:55.926Z,28.50
2023-05-22T16:24:22.739Z,28.00
2023-05-22T16:26:49.682Z,27.40
2023-05-22T16:29:23.437Z,26.80
2023-05-22T16:31:54.122Z,26.30
2023-05-22T16:34:24.419Z,26.00
2023-05-22T16:36:51.957Z,25.80
2023-05-22T16:39:24.818Z,25.50
2023-05-22T16:42:02.835Z,25.10
2023-05-22T16:44:36.164Z,24.70
2023-05-22T16:47:11.614Z,23.90
2023-05-22T16:49:56.181Z,23.50
2023-05-22T16:52:32.675Z,22.90
2023-05-22T16:55:27.185Z,22.50
2023-05-22T16:58:06.328Z,22.30
2023-05-22T17:00:35.912Z,22.10
2023-05-22T17:03:04.197Z,21.80
2023-05-22T17:05:31.667Z,21.30
2023-05-22T17:08:03.409Z,21.00
2023-05-22T17:10:35.120Z,20.60
2023-05-22T17:13:02.102Z,20.20
2023-05-22T17:15:29.195Z,19.80
2023-05-22T17:17:56.319Z,19.80
2023-05-22T17:20:23.374Z,19.70
2023-05-22T17:22:51.015Z,19.80
2023-05-22T17:25:17.833Z,20.00
2023-05-22T17:27:44.876Z,20.10
2023-05-22T17:30:11.965Z,20.40
2023-05-22T17:32:39.015Z,20.60
2023-05-22T17:35:06.924Z,20.90
2023-05-22T17:37:40.669Z,21.10
2023-05-22T17:40:11.212Z,21.20
2023-05-22T17:42:38.370Z,21.20
2023-05-22T17:45:06.070Z,20.90
2023-05-22T17:47:33.140Z,20.70
2023-05-22T17:50:00.693Z,20.70
2023-05-22T17:52:31.264Z,20.70
2023-05-22T17:55:01.707Z,20.70
2023-05-22T17:57:28.765Z,20.80
2023-05-22T17:59:55.574Z,20.80
2023-05-22T18:02:23.101Z,20.70
2023-05-22T18:04:49.978Z,20.70
2023-05-22T18:07:17.442Z,20.80
2023-05-22T18:09:44.281Z,20.70
2023-05-22T18:12:30.240Z,20.80
2023-05-22T18:14:57.747Z,20.80
2023-05-22T18:17:24.635Z,21.00
2023-05-22T18:19:51.545Z,21.00
2023-05-22T18:22:18.677Z,21.10
2023-05-22T18:24:45.542Z,21.10
2023-05-22T18:27:12.480Z,21.20
2023-05-22T18:29:40.157Z,21.20
2023-05-22T18:32:09.467Z,21.20
2023-05-22T18:34:37.808Z,21.30
2023-05-22T18:37:08.039Z,21.20
2023-05-22T18:39:35.935Z,21.30
2023-05-22T18:42:05.829Z,21.30
2023-05-22T18:44:32.718Z,21.20
2023-05-22T18:46:59.742Z,21.20
2023-05-22T18:49:27.170Z,21.20
2023-05-22T18:51:57.071Z,21.30
2023-05-22T18:54:31.992Z,21.30
2023-05-22T18:57:02.202Z,21.30
2023-05-22T18:59:29.186Z,21.30
2023-05-22T19:02:01.417Z,21.30
2023-05-22T19:04:35.391Z,21.20
2023-05-22T19:07:09.689Z,21.20
2023-05-22T19:09:39.755Z,21.10
2023-05-22T19:12:16.001Z,21.00
2023-05-22T19:14:43.455Z,21.00
2023-05-22T19:17:11.103Z,20.90
2023-05-22T19:19:40.839Z,20.90
2023-05-22T19:22:10.440Z,20.80
2023-05-22T19:24:37.414Z,20.70
2023-05-22T19:27:12.451Z,20.60
2023-05-22T19:29:42.317Z,20.50
2023-05-22T19:32:09.404Z,20.40
2023-05-22T19:34:37.832Z,20.30
2023-05-22T19:37:05.554Z,20.20
2023-05-22T19:39:32.565Z,20.10
2023-05-22T19:42:08.629Z,20.10
2023-05-22T19:44:37.967Z,20.10
2023-05-22T19:47:08.908Z,20.00
2023-05-22T19:49:44.306Z,19.90
2023-05-22T19:52:12.003Z,19.80
2023-05-22T19:54:41.800Z,19.80
2023-05-22T19:57:15.220Z,19.80
2023-05-22T19:59:59.771Z,19.70
2023-05-22T20:02:38.078Z,19.70
2023-05-22T20:05:18.342Z,19.70
2023-05-22T20:07:54.196Z,19.70
2023-05-22T20:10:21.758Z,19.60
2023-05-22T20:12:48.902Z,19.60
2023-05-22T20:15:18.591Z,19.50
2023-05-22T20:17:52.078Z,19.50
2023-05-22T20:20:20.250Z,19.50
2023-05-22T20:22:47.547Z,19.40
2023-05-22T20:25:14.860Z,19.40
2023-05-22T20:27:41.888Z,19.40
2023-05-22T20:30:16.795Z,19.40
2023-05-22T20:32:48.267Z,19.50
2023-05-22T20:35:22.394Z,19.50
2023-05-22T20:37:50.649Z,19.60
2023-05-22T20:40:18.621Z,19.60
2023-05-22T20:42:46.504Z,19.60
2023-05-22T20:45:17.987Z,19.60
2023-05-22T20:47:48.177Z,19.60
2023-05-22T20:50:18.752Z,19.60
2023-05-22T20:52:48.084Z,19.60
2023-05-22T20:55:30.051Z,19.60
2023-05-22T20:58:00.288Z,19.70
2023-05-22T21:00:30.143Z,19.60
2023-05-22T21:03:00.203Z,19.60
2023-05-22T21:05:27.712Z,19.60
2023-05-22T21:07:55.748Z,19.50
2023-05-22T21:10:29.047Z,19.50
2023-05-22T21:12:56.298Z,19.50
2023-05-22T21:15:26.802Z,19.50
2023-05-22T21:17:56.961Z,19.40
2023-05-22T21:20:27.567Z,19.40
2023-05-22T21:22:55.879Z,19.40
2023-05-22T21:25:43.596Z,19.30
2023-05-22T21:28:11.096Z,19.30
2023-05-22T21:30:38.771Z,19.20
2023-05-22T21:33:06.106Z,19.20
2023-05-22T21:35:34.136Z,19.10
2023-05-22T21:38:04.451Z,19.00
2023-05-22T21:40:31.975Z,19.00
2023-05-22T21:43:00.335Z,18.90
2023-05-22T21:45:28.186Z,18.80
2023-05-22T21:48:02.207Z,18.80
2023-05-22T21:50:30.630Z,18.70
2023-05-22T21:52:59.113Z,18.70
2023-05-22T21:55:27.253Z,18.60
2023-05-22T21:57:59.050Z,18.60
2023-05-22T22:00:30.965Z,18.60
2023-05-22T22:02:59.121Z,18.60
2023-05-22T22:05:27.578Z,18.60
2023-05-22T22:07:54.493Z,18.60
2023-05-22T22:10:21.450Z,18.50
2023-05-22T22:12:48.703Z,18.50
2023-05-22T22:15:17.100Z,18.50
2023-05-22T22:17:44.033Z,18.50
2023-05-22T22:20:11.506Z,18.50
2023-05-22T22:22:39.892Z,18.40
2023-05-22T22:25:07.050Z,18.40
2023-05-22T22:27:33.916Z,18.40
2023-05-22T22:30:00.713Z,18.30
2023-05-22T22:32:27.490Z,18.40
2023-05-22T22:34:55.218Z,18.30
2023-05-22T22:37:22.341Z,18.30
2023-05-22T22:39:49.511Z,18.30
2023-05-22T22:42:16.694Z,18.20
2023-05-22T22:44:44.353Z,18.30
2023-05-22T22:47:11.360Z,18.20
2023-05-22T22:49:38.445Z,18.10
2023-05-22T22:52:05.649Z,18.10
2023-05-22T22:54:32.762Z,18.00
2023-05-22T22:56:59.957Z,18.00
2023-05-22T22:59:26.758Z,17.90
2023-05-22T23:01:53.987Z,17.90
2023-05-22T23:04:21.223Z,17.90
2023-05-22T23:06:48.421Z,18.00
2023-05-22T23:09:15.662Z,18.00
2023-05-22T23:11:42.654Z,18.00
2023-05-22T23:14:10.157Z,18.10
2023-05-22T23:16:40.742Z,18.10
2023-05-22T23:19:09.060Z,18.20
2023-05-22T23:21:36.764Z,18.20
2023-05-22T23:24:05.875Z,18.20
2023-05-22T23:26:33.427Z,18.20
2023-05-22T23:29:01.059Z,18.20
2023-05-22T23:31:30.508Z,18.20
2023-05-22T23:33:58.485Z,18.20
2023-05-22T23:36:25.910Z,18.20
2023-05-22T23:38:53.917Z,18.30
2023-05-22T23:41:20.691Z,18.30
2023-05-22T23:43:47.551Z,18.30
2023-05-22T23:46:14.861Z,18.20
2023-05-22T23:48:42.568Z,18.10
2023-05-22T23:51:16.717Z,18.10
2023-05-22T23:53:44.770Z,18.10
2023-05-22T23:56:11.692Z,18.00
2023-05-22T23:58:38.723Z,18.00
